sensor_id;sensor_type;location;lat;lon;timestamp;temperature;humidity
61207;DHT22;47070;49.212;8.084;2023-02-26T00:03:25;4.80;92.80
61207;DHT22;47070;49.212;8.084;2023-02-26T00:07:25;4.60;92.90
61207;DHT22;47070;49.212;8.084;2023-02-26T00:11:28;4.80;92.90
61207;DHT22;47070;49.212;8.084;2023-02-26T00:15:29;4.50;93.00
61207;DHT22;47070;49.212;8.084;2023-02-26T00:19:29;4.40;93.40
61207;DHT22;47070;49.212;8.084;2023-02-26T00:23:30;4.40;93.30
61207;DHT22;47070;49.212;8.084;2023-02-26T00:27:30;4.30;93.20
61207;DHT22;47070;49.212;8.084;2023-02-26T00:31:31;4.40;93.60
61207;DHT22;47070;49.212;8.084;2023-02-26T00:35:31;4.40;94.00
61207;DHT22;47070;49.212;8.084;2023-02-26T00:43:32;4.30;93.30
61207;DHT22;47070;49.212;8.084;2023-02-26T00:55:37;4.50;93.00
61207;DHT22;47070;49.212;8.084;2023-02-26T00:59:38;4.30;93.10
61207;DHT22;47070;49.212;8.084;2023-02-26T01:03:38;4.30;93.20
61207;DHT22;47070;49.212;8.084;2023-02-26T01:07:41;4.10;93.40
61207;DHT22;47070;49.212;8.084;2023-02-26T01:11:43;4.20;93.40
61207;DHT22;47070;49.212;8.084;2023-02-26T01:15:46;4.10;93.50
61207;DHT22;47070;49.212;8.084;2023-02-26T01:19:55;4.10;93.60
61207;DHT22;47070;49.212;8.084;2023-02-26T01:23:57;4.10;93.50
61207;DHT22;47070;49.212;8.084;2023-02-26T01:28:00;4.00;94.10
61207;DHT22;47070;49.212;8.084;2023-02-26T01:32:03;4.10;93.90
61207;DHT22;47070;49.212;8.084;2023-02-26T01:48:17;4.30;95.20
61207;DHT22;47070;49.212;8.084;2023-02-26T01:56:39;4.40;94.00
61207;DHT22;47070;49.212;8.084;2023-02-26T02:00:40;4.60;99.70
61207;DHT22;47070;49.212;8.084;2023-02-26T02:04:41;4.20;98.10
61207;DHT22;47070;49.212;8.084;2023-02-26T02:08:42;4.10;94.10
61207;DHT22;47070;49.212;8.084;2023-02-26T02:12:46;4.30;94.50
61207;DHT22;47070;49.212;8.084;2023-02-26T02:16:58;4.50;98.70
61207;DHT22;47070;49.212;8.084;2023-02-26T02:29:40;3.80;94.60
61207;DHT22;47070;49.212;8.084;2023-02-26T02:33:56;3.90;94.90
61207;DHT22;47070;49.212;8.084;2023-02-26T02:46:39;4.20;96.00
61207;DHT22;47070;49.212;8.084;2023-02-26T02:50:46;4.00;95.10
61207;DHT22;47070;49.212;8.084;2023-02-26T02:54:50;3.90;95.10
61207;DHT22;47070;49.212;8.084;2023-02-26T02:59:05;4.00;95.30
61207;DHT22;47070;49.212;8.084;2023-02-26T03:07:30;3.90;95.70
61207;DHT22;47070;49.212;8.084;2023-02-26T03:11:32;4.00;95.50
61207;DHT22;47070;49.212;8.084;2023-02-26T03:19:35;4.00;95.60
61207;DHT22;47070;49.212;8.084;2023-02-26T03:23:39;3.90;95.60
61207;DHT22;47070;49.212;8.084;2023-02-26T03:27:46;3.50;96.10
61207;DHT22;47070;49.212;8.084;2023-02-26T03:31:54;3.70;96.30
61207;DHT22;47070;49.212;8.084;2023-02-26T03:35:58;3.70;96.60
61207;DHT22;47070;49.212;8.084;2023-02-26T03:40:04;3.60;96.10
61207;DHT22;47070;49.212;8.084;2023-02-26T03:44:18;3.50;96.30
61207;DHT22;47070;49.212;8.084;2023-02-26T03:48:22;3.50;96.10
61207;DHT22;47070;49.212;8.084;2023-02-26T03:52:25;3.40;96.20
61207;DHT22;47070;49.212;8.084;2023-02-26T03:56:31;3.60;97.00
61207;DHT22;47070;49.212;8.084;2023-02-26T04:00:32;3.50;96.80
61207;DHT22;47070;49.212;8.084;2023-02-26T04:08:34;3.70;96.50
61207;DHT22;47070;49.212;8.084;2023-02-26T04:12:35;3.70;96.50
61207;DHT22;47070;49.212;8.084;2023-02-26T04:16:35;3.80;96.20
61207;DHT22;47070;49.212;8.084;2023-02-26T04:20:36;3.50;96.40
61207;DHT22;47070;49.212;8.084;2023-02-26T04:24:36;3.40;96.40
61207;DHT22;47070;49.212;8.084;2023-02-26T04:28:37;3.30;96.50
61207;DHT22;47070;49.212;8.084;2023-02-26T04:32:38;3.20;96.40
61207;DHT22;47070;49.212;8.084;2023-02-26T04:36:38;3.20;96.80
61207;DHT22;47070;49.212;8.084;2023-02-26T04:40:38;3.20;96.70
61207;DHT22;47070;49.212;8.084;2023-02-26T04:44:39;3.40;97.00
61207;DHT22;47070;49.212;8.084;2023-02-26T04:48:39;3.60;98.60
61207;DHT22;47070;49.212;8.084;2023-02-26T04:52:40;3.50;96.90
61207;DHT22;47070;49.212;8.084;2023-02-26T04:56:40;3.70;99.20
61207;DHT22;47070;49.212;8.084;2023-02-26T05:00:41;3.60;97.10
61207;DHT22;47070;49.212;8.084;2023-02-26T05:04:41;3.40;97.30
61207;DHT22;47070;49.212;8.084;2023-02-26T05:08:42;3.80;99.90
61207;DHT22;47070;49.212;8.084;2023-02-26T05:12:42;3.70;99.70
61207;DHT22;47070;49.212;8.084;2023-02-26T05:16:43;3.50;97.90
61207;DHT22;47070;49.212;8.084;2023-02-26T05:20:43;3.30;98.50
61207;DHT22;47070;49.212;8.084;2023-02-26T05:24:43;3.10;98.50
61207;DHT22;47070;49.212;8.084;2023-02-26T05:28:44;4.00;99.90
61207;DHT22;47070;49.212;8.084;2023-02-26T05:32:44;3.40;98.40
61207;DHT22;47070;49.212;8.084;2023-02-26T05:36:45;3.50;99.30
61207;DHT22;47070;49.212;8.084;2023-02-26T05:40:45;3.80;99.90
61207;DHT22;47070;49.212;8.084;2023-02-26T05:44:46;3.40;99.20
61207;DHT22;47070;49.212;8.084;2023-02-26T05:48:46;3.30;99.90
61207;DHT22;47070;49.212;8.084;2023-02-26T05:52:47;3.40;99.90
61207;DHT22;47070;49.212;8.084;2023-02-26T05:56:47;3.00;99.90
61207;DHT22;47070;49.212;8.084;2023-02-26T06:00:48;3.10;99.90
61207;DHT22;47070;49.212;8.084;2023-02-26T06:04:48;3.10;99.90
61207;DHT22;47070;49.212;8.084;2023-02-26T06:08:49;3.10;99.90
61207;DHT22;47070;49.212;8.084;2023-02-26T06:12:49;4.10;99.90
61207;DHT22;47070;49.212;8.084;2023-02-26T06:16:50;3.90;99.90
61207;DHT22;47070;49.212;8.084;2023-02-26T06:20:50;3.70;99.90
61207;DHT22;47070;49.212;8.084;2023-02-26T06:24:50;3.60;99.90
61207;DHT22;47070;49.212;8.084;2023-02-26T06:28:51;4.50;99.90
61207;DHT22;47070;49.212;8.084;2023-02-26T06:32:51;4.50;99.90
61207;DHT22;47070;49.212;8.084;2023-02-26T06:36:52;4.60;99.90
61207;DHT22;47070;49.212;8.084;2023-02-26T06:40:52;5.00;99.70
61207;DHT22;47070;49.212;8.084;2023-02-26T06:44:53;6.00;99.90
61207;DHT22;47070;49.212;8.084;2023-02-26T06:48:53;5.30;99.10
61207;DHT22;47070;49.212;8.084;2023-02-26T06:52:54;4.90;99.90
61207;DHT22;47070;49.212;8.084;2023-02-26T06:56:54;5.40;99.60
61207;DHT22;47070;49.212;8.084;2023-02-26T07:00:56;6.20;99.90
61207;DHT22;47070;49.212;8.084;2023-02-26T07:04:57;5.80;99.90
61207;DHT22;47070;49.212;8.084;2023-02-26T07:08:57;6.40;99.90
61207;DHT22;47070;49.212;8.084;2023-02-26T07:12:58;5.20;99.30
61207;DHT22;47070;49.212;8.084;2023-02-26T07:16:59;6.40;99.90
61207;DHT22;47070;49.212;8.084;2023-02-26T07:21:00;6.30;99.40
61207;DHT22;47070;49.212;8.084;2023-02-26T07:25:00;5.10;99.90
61207;DHT22;47070;49.212;8.084;2023-02-26T07:29:01;5.90;99.90
61207;DHT22;47070;49.212;8.084;2023-02-26T07:33:01;5.90;99.90
61207;DHT22;47070;49.212;8.084;2023-02-26T07:37:02;6.20;99.00
61207;DHT22;47070;49.212;8.084;2023-02-26T07:41:02;5.90;99.90
61207;DHT22;47070;49.212;8.084;2023-02-26T07:45:03;6.40;97.30
61207;DHT22;47070;49.212;8.084;2023-02-26T07:49:03;7.10;99.90
61207;DHT22;47070;49.212;8.084;2023-02-26T07:53:04;5.90;98.60
61207;DHT22;47070;49.212;8.084;2023-02-26T07:57:04;4.80;98.50
61207;DHT22;47070;49.212;8.084;2023-02-26T08:01:05;6.20;99.90
61207;DHT22;47070;49.212;8.084;2023-02-26T08:05:06;5.80;98.90
61207;DHT22;47070;49.212;8.084;2023-02-26T08:09:06;5.90;99.90
61207;DHT22;47070;49.212;8.084;2023-02-26T08:13:07;5.50;98.90
61207;DHT22;47070;49.212;8.084;2023-02-26T08:17:07;6.10;98.90
61207;DHT22;47070;49.212;8.084;2023-02-26T08:21:08;7.20;99.50
61207;DHT22;47070;49.212;8.084;2023-02-26T08:25:10;6.90;98.70
61207;DHT22;47070;49.212;8.084;2023-02-26T08:29:11;5.70;99.10
61207;DHT22;47070;49.212;8.084;2023-02-26T08:33:12;5.70;99.90
61207;DHT22;47070;49.212;8.084;2023-02-26T08:37:12;6.60;99.90
61207;DHT22;47070;49.212;8.084;2023-02-26T08:41:13;7.50;99.90
61207;DHT22;47070;49.212;8.084;2023-02-26T08:45:13;6.40;97.70
61207;DHT22;47070;49.212;8.084;2023-02-26T08:49:14;6.30;97.80
61207;DHT22;47070;49.212;8.084;2023-02-26T08:53:14;7.20;99.90
61207;DHT22;47070;49.212;8.084;2023-02-26T08:57:15;8.40;99.10
61207;DHT22;47070;49.212;8.084;2023-02-26T09:01:16;8.00;98.60
61207;DHT22;47070;49.212;8.084;2023-02-26T09:05:16;7.70;99.90
61207;DHT22;47070;49.212;8.084;2023-02-26T09:09:17;9.00;96.40
61207;DHT22;47070;49.212;8.084;2023-02-26T09:13:18;9.00;95.80
61207;DHT22;47070;49.212;8.084;2023-02-26T09:17:18;8.00;93.70
61207;DHT22;47070;49.212;8.084;2023-02-26T09:21:19;7.40;99.60
61207;DHT22;47070;49.212;8.084;2023-02-26T09:25:19;8.50;96.50
61207;DHT22;47070;49.212;8.084;2023-02-26T09:29:20;9.40;94.50
61207;DHT22;47070;49.212;8.084;2023-02-26T09:33:20;9.30;99.90
61207;DHT22;47070;49.212;8.084;2023-02-26T09:37:21;7.30;95.30
61207;DHT22;47070;49.212;8.084;2023-02-26T09:41:36;9.50;99.90
61207;DHT22;47070;49.212;8.084;2023-02-26T09:45:38;9.10;95.30
61207;DHT22;47070;49.212;8.084;2023-02-26T09:53:43;8.40;94.20
61207;DHT22;47070;49.212;8.084;2023-02-26T09:57:44;10.10;96.50
61207;DHT22;47070;49.212;8.084;2023-02-26T10:14:11;8.10;99.90
61207;DHT22;47070;49.212;8.084;2023-02-26T10:18:24;8.50;97.90
61207;DHT22;47070;49.212;8.084;2023-02-26T10:22:27;9.70;95.20
61207;DHT22;47070;49.212;8.084;2023-02-26T10:26:40;9.80;93.40
61207;DHT22;47070;49.212;8.084;2023-02-26T10:30:49;10.00;92.90
61207;DHT22;47070;49.212;8.084;2023-02-26T10:34:55;11.50;97.80
61207;DHT22;47070;49.212;8.084;2023-02-26T10:47:28;11.10;91.20
61207;DHT22;47070;49.212;8.084;2023-02-26T10:51:32;11.30;95.20
61207;DHT22;47070;49.212;8.084;2023-02-26T10:55:38;11.00;98.50
61207;DHT22;47070;49.212;8.084;2023-02-26T10:59:40;10.80;92.30
61207;DHT22;47070;49.212;8.084;2023-02-26T11:03:42;9.30;90.30
61207;DHT22;47070;49.212;8.084;2023-02-26T11:07:44;9.70;92.20
61207;DHT22;47070;49.212;8.084;2023-02-26T11:11:53;8.80;94.60
61207;DHT22;47070;49.212;8.084;2023-02-26T11:15:54;9.00;97.00
61207;DHT22;47070;49.212;8.084;2023-02-26T11:20:04;10.50;93.70
61207;DHT22;47070;49.212;8.084;2023-02-26T11:24:56;10.30;90.50
61207;DHT22;47070;49.212;8.084;2023-02-26T11:28:42;10.50;91.10
61207;DHT22;47070;49.212;8.084;2023-02-26T11:32:43;9.60;97.10
61207;DHT22;47070;49.212;8.084;2023-02-26T11:36:47;8.60;92.20
61207;DHT22;47070;49.212;8.084;2023-02-26T11:40:49;9.70;95.20
61207;DHT22;47070;49.212;8.084;2023-02-26T11:44:51;9.00;95.00
61207;DHT22;47070;49.212;8.084;2023-02-26T11:48:52;11.20;97.10
61207;DHT22;47070;49.212;8.084;2023-02-26T11:53:05;10.30;92.50
61207;DHT22;47070;49.212;8.084;2023-02-26T11:57:14;10.40;96.90
61207;DHT22;47070;49.212;8.084;2023-02-26T12:01:15;9.00;92.40
61207;DHT22;47070;49.212;8.084;2023-02-26T12:05:16;8.30;94.50
61207;DHT22;47070;49.212;8.084;2023-02-26T12:09:17;7.70;92.50
61207;DHT22;47070;49.212;8.084;2023-02-26T12:13:21;8.50;92.80
61207;DHT22;47070;49.212;8.084;2023-02-26T12:17:48;8.80;92.90
61207;DHT22;47070;49.212;8.084;2023-02-26T12:22:01;12.00;95.90
61207;DHT22;47070;49.212;8.084;2023-02-26T12:26:19;10.30;93.80
61207;DHT22;47070;49.212;8.084;2023-02-26T12:30:41;9.10;89.70
61207;DHT22;47070;49.212;8.084;2023-02-26T12:43:56;9.60;99.90
61207;DHT22;47070;49.212;8.084;2023-02-26T12:52:15;8.90;91.80
61207;DHT22;47070;49.212;8.084;2023-02-26T13:08:41;7.60;93.40
61207;DHT22;47070;49.212;8.084;2023-02-26T13:21:19;10.90;99.90
61207;DHT22;47070;49.212;8.084;2023-02-26T13:29:35;10.00;99.90
61207;DHT22;47070;49.212;8.084;2023-02-26T13:33:36;9.60;96.70
61207;DHT22;47070;49.212;8.084;2023-02-26T13:37:38;8.50;97.60
61207;DHT22;47070;49.212;8.084;2023-02-26T13:41:43;8.10;94.60
61207;DHT22;47070;49.212;8.084;2023-02-26T14:02:43;10.90;97.10
61207;DHT22;47070;49.212;8.084;2023-02-26T14:10:55;10.70;97.00
61207;DHT22;47070;49.212;8.084;2023-02-26T14:19:02;11.70;94.20
61207;DHT22;47070;49.212;8.084;2023-02-26T14:31:13;11.70;90.70
61207;DHT22;47070;49.212;8.084;2023-02-26T14:39:27;11.60;96.00
61207;DHT22;47070;49.212;8.084;2023-02-26T14:43:33;12.00;93.40
61207;DHT22;47070;49.212;8.084;2023-02-26T14:47:35;11.90;93.70
61207;DHT22;47070;49.212;8.084;2023-02-26T14:56:01;11.70;90.60
61207;DHT22;47070;49.212;8.084;2023-02-26T15:00:12;10.30;92.80
61207;DHT22;47070;49.212;8.084;2023-02-26T15:08:44;11.40;90.70
61207;DHT22;47070;49.212;8.084;2023-02-26T15:17:06;11.50;95.30
61207;DHT22;47070;49.212;8.084;2023-02-26T15:25:31;11.10;91.20
61207;DHT22;47070;49.212;8.084;2023-02-26T15:29:34;11.80;86.70
61207;DHT22;47070;49.212;8.084;2023-02-26T15:33:35;10.20;89.30
61207;DHT22;47070;49.212;8.084;2023-02-26T15:37:36;11.20;95.80
61207;DHT22;47070;49.212;8.084;2023-02-26T15:41:38;11.90;94.30
61207;DHT22;47070;49.212;8.084;2023-02-26T15:45:40;10.80;90.10
61207;DHT22;47070;49.212;8.084;2023-02-26T15:49:42;11.70;96.00
61207;DHT22;47070;49.212;8.084;2023-02-26T15:53:44;10.10;90.60
61207;DHT22;47070;49.212;8.084;2023-02-26T15:57:46;9.20;95.40
61207;DHT22;47070;49.212;8.084;2023-02-26T16:01:47;8.10;91.70
61207;DHT22;47070;49.212;8.084;2023-02-26T16:05:48;8.40;94.70
61207;DHT22;47070;49.212;8.084;2023-02-26T16:09:49;7.70;92.30
61207;DHT22;47070;49.212;8.084;2023-02-26T16:13:51;7.60;92.60
61207;DHT22;47070;49.212;8.084;2023-02-26T16:17:52;8.00;94.10
61207;DHT22;47070;49.212;8.084;2023-02-26T16:21:53;8.80;97.50
61207;DHT22;47070;49.212;8.084;2023-02-26T16:25:56;9.70;97.70
61207;DHT22;47070;49.212;8.084;2023-02-26T16:29:58;9.50;96.80
61207;DHT22;47070;49.212;8.084;2023-02-26T16:34:00;10.30;93.60
61207;DHT22;47070;49.212;8.084;2023-02-26T16:38:10;9.40;94.90
61207;DHT22;47070;49.212;8.084;2023-02-26T16:42:14;9.00;93.40
61207;DHT22;47070;49.212;8.084;2023-02-26T16:46:16;10.10;94.50
61207;DHT22;47070;49.212;8.084;2023-02-26T16:50:20;10.90;93.20
61207;DHT22;47070;49.212;8.084;2023-02-26T16:58:24;9.20;91.80
61207;DHT22;47070;49.212;8.084;2023-02-26T17:02:26;10.10;93.50
61207;DHT22;47070;49.212;8.084;2023-02-26T17:06:28;9.70;92.00
61207;DHT22;47070;49.212;8.084;2023-02-26T17:10:39;10.10;91.00
61207;DHT22;47070;49.212;8.084;2023-02-26T17:14:40;9.50;97.40
61207;DHT22;47070;49.212;8.084;2023-02-26T17:18:42;8.80;86.70
61207;DHT22;47070;49.212;8.084;2023-02-26T17:22:42;8.60;89.80
61207;DHT22;47070;49.212;8.084;2023-02-26T17:26:43;8.30;89.00
61207;DHT22;47070;49.212;8.084;2023-02-26T17:30:44;8.00;88.70
61207;DHT22;47070;49.212;8.084;2023-02-26T17:34:45;7.80;88.50
61207;DHT22;47070;49.212;8.084;2023-02-26T17:38:45;6.70;90.30
61207;DHT22;47070;49.212;8.084;2023-02-26T17:42:46;6.50;89.90
61207;DHT22;47070;49.212;8.084;2023-02-26T17:46:47;6.20;92.40
61207;DHT22;47070;49.212;8.084;2023-02-26T17:50:54;5.90;90.90
61207;DHT22;47070;49.212;8.084;2023-02-26T17:54:55;6.20;91.40
61207;DHT22;47070;49.212;8.084;2023-02-26T17:58:56;6.70;92.20
61207;DHT22;47070;49.212;8.084;2023-02-26T18:02:57;7.20;95.50
61207;DHT22;47070;49.212;8.084;2023-02-26T18:06:57;7.30;92.40
61207;DHT22;47070;49.212;8.084;2023-02-26T18:10:58;7.10;90.90
61207;DHT22;47070;49.212;8.084;2023-02-26T18:14:59;6.90;91.90
61207;DHT22;47070;49.212;8.084;2023-02-26T18:19:00;6.80;92.90
61207;DHT22;47070;49.212;8.084;2023-02-26T18:23:01;7.40;92.40
61207;DHT22;47070;49.212;8.084;2023-02-26T18:27:01;7.80;92.30
61207;DHT22;47070;49.212;8.084;2023-02-26T18:31:01;9.10;94.80
61207;DHT22;47070;49.212;8.084;2023-02-26T18:35:07;9.40;84.20
61207;DHT22;47070;49.212;8.084;2023-02-26T18:39:10;7.70;88.30
61207;DHT22;47070;49.212;8.084;2023-02-26T18:43:11;8.70;92.00
61207;DHT22;47070;49.212;8.084;2023-02-26T18:47:12;9.80;94.20
61207;DHT22;47070;49.212;8.084;2023-02-26T18:51:12;7.80;95.70
61207;DHT22;47070;49.212;8.084;2023-02-26T18:55:13;7.60;91.90
61207;DHT22;47070;49.212;8.084;2023-02-26T18:59:13;7.50;94.80
61207;DHT22;47070;49.212;8.084;2023-02-26T19:03:14;8.60;88.10
61207;DHT22;47070;49.212;8.084;2023-02-26T19:07:14;9.00;84.50
61207;DHT22;47070;49.212;8.084;2023-02-26T19:11:15;10.10;96.60
61207;DHT22;47070;49.212;8.084;2023-02-26T19:15:15;9.40;92.90
61207;DHT22;47070;49.212;8.084;2023-02-26T19:19:16;9.70;91.90
61207;DHT22;47070;49.212;8.084;2023-02-26T19:23:16;9.30;87.50
61207;DHT22;47070;49.212;8.084;2023-02-26T19:27:17;9.50;93.00
61207;DHT22;47070;49.212;8.084;2023-02-26T19:31:18;8.00;85.50
61207;DHT22;47070;49.212;8.084;2023-02-26T19:35:18;7.60;95.50
61207;DHT22;47070;49.212;8.084;2023-02-26T19:39:19;9.70;93.10
61207;DHT22;47070;49.212;8.084;2023-02-26T19:43:19;8.60;86.90
61207;DHT22;47070;49.212;8.084;2023-02-26T19:47:20;8.80;94.10
61207;DHT22;47070;49.212;8.084;2023-02-26T19:51:20;8.50;90.40
61207;DHT22;47070;49.212;8.084;2023-02-26T19:55:20;8.50;88.10
61207;DHT22;47070;49.212;8.084;2023-02-26T19:59:21;8.30;86.00
61207;DHT22;47070;49.212;8.084;2023-02-26T20:03:21;7.20;83.90
61207;DHT22;47070;49.212;8.084;2023-02-26T20:07:22;8.60;94.60
61207;DHT22;47070;49.212;8.084;2023-02-26T20:11:22;8.50;81.80
61207;DHT22;47070;49.212;8.084;2023-02-26T20:15:23;9.00;92.60
61207;DHT22;47070;49.212;8.084;2023-02-26T20:19:24;8.60;85.70
61207;DHT22;47070;49.212;8.084;2023-02-26T20:23:24;6.60;83.00
61207;DHT22;47070;49.212;8.084;2023-02-26T20:27:25;6.10;88.80
61207;DHT22;47070;49.212;8.084;2023-02-26T20:31:25;6.60;89.20
61207;DHT22;47070;49.212;8.084;2023-02-26T20:35:26;7.20;94.80
61207;DHT22;47070;49.212;8.084;2023-02-26T20:39:26;7.20;92.00
61207;DHT22;47070;49.212;8.084;2023-02-26T20:43:27;6.20;90.50
61207;DHT22;47070;49.212;8.084;2023-02-26T20:47:27;6.10;98.00
61207;DHT22;47070;49.212;8.084;2023-02-26T20:51:28;6.20;89.40
61207;DHT22;47070;49.212;8.084;2023-02-26T20:55:28;6.20;96.80
61207;DHT22;47070;49.212;8.084;2023-02-26T20:59:28;6.80;90.30
61207;DHT22;47070;49.212;8.084;2023-02-26T21:03:29;5.70;91.90
61207;DHT22;47070;49.212;8.084;2023-02-26T21:07:29;5.60;91.70
61207;DHT22;47070;49.212;8.084;2023-02-26T21:11:30;5.00;92.50
61207;DHT22;47070;49.212;8.084;2023-02-26T21:15:31;6.70;96.90
61207;DHT22;47070;49.212;8.084;2023-02-26T21:19:32;5.30;89.70
61207;DHT22;47070;49.212;8.084;2023-02-26T21:23:32;4.50;93.40
61207;DHT22;47070;49.212;8.084;2023-02-26T21:27:33;4.30;97.80
61207;DHT22;47070;49.212;8.084;2023-02-26T21:31:34;4.40;91.80
61207;DHT22;47070;49.212;8.084;2023-02-26T21:35:34;4.50;92.70
61207;DHT22;47070;49.212;8.084;2023-02-26T21:39:35;3.80;92.70
61207;DHT22;47070;49.212;8.084;2023-02-26T21:43:37;4.10;93.20
61207;DHT22;47070;49.212;8.084;2023-02-26T21:47:38;4.00;92.80
61207;DHT22;47070;49.212;8.084;2023-02-26T21:51:38;4.40;92.50
61207;DHT22;47070;49.212;8.084;2023-02-26T21:55:39;4.30;93.60
61207;DHT22;47070;49.212;8.084;2023-02-26T21:59:39;4.50;95.10
61207;DHT22;47070;49.212;8.084;2023-02-26T22:03:40;6.00;96.10
61207;DHT22;47070;49.212;8.084;2023-02-26T22:07:40;5.40;93.10
61207;DHT22;47070;49.212;8.084;2023-02-26T22:11:41;5.20;95.50
61207;DHT22;47070;49.212;8.084;2023-02-26T22:15:41;4.60;93.10
61207;DHT22;47070;49.212;8.084;2023-02-26T22:19:42;4.40;93.30
61207;DHT22;47070;49.212;8.084;2023-02-26T22:23:42;5.40;97.20
61207;DHT22;47070;49.212;8.084;2023-02-26T22:27:42;5.00;94.90
61207;DHT22;47070;49.212;8.084;2023-02-26T22:31:43;5.60;92.20
61207;DHT22;47070;49.212;8.084;2023-02-26T22:35:43;5.70;94.50
61207;DHT22;47070;49.212;8.084;2023-02-26T22:39:44;5.50;91.50
61207;DHT22;47070;49.212;8.084;2023-02-26T22:43:44;5.50;94.60
61207;DHT22;47070;49.212;8.084;2023-02-26T22:47:45;5.30;93.20
61207;DHT22;47070;49.212;8.084;2023-02-26T22:51:47;4.80;93.80
61207;DHT22;47070;49.212;8.084;2023-02-26T22:55:47;4.50;94.60
61207;DHT22;47070;49.212;8.084;2023-02-26T22:59:47;4.60;97.80
61207;DHT22;47070;49.212;8.084;2023-02-26T23:03:48;4.00;93.70
61207;DHT22;47070;49.212;8.084;2023-02-26T23:07:48;3.60;93.70
61207;DHT22;47070;49.212;8.084;2023-02-26T23:11:49;3.80;95.60
61207;DHT22;47070;49.212;8.084;2023-02-26T23:15:49;4.10;94.60
61207;DHT22;47070;49.212;8.084;2023-02-26T23:19:50;4.40;94.10
61207;DHT22;47070;49.212;8.084;2023-02-26T23:23:51;4.70;94.50
61207;DHT22;47070;49.212;8.084;2023-02-26T23:27:51;4.50;94.60
61207;DHT22;47070;49.212;8.084;2023-02-26T23:31:51;4.70;96.40
61207;DHT22;47070;49.212;8.084;2023-02-26T23:35:52;4.30;93.30
61207;DHT22;47070;49.212;8.084;2023-02-26T23:39:52;4.90;99.90
61207;DHT22;47070;49.212;8.084;2023-02-26T23:43:53;4.90;92.50
61207;DHT22;47070;49.212;8.084;2023-02-26T23:47:53;4.80;95.40
61207;DHT22;47070;49.212;8.084;2023-02-26T23:51:53;4.50;94.20
61207;DHT22;47070;49.212;8.084;2023-02-26T23:55:54;4.80;95.20
61207;DHT22;47070;49.212;8.084;2023-02-26T23:59:58;5.70;99.90
